createdAt,value
2022-10-22T00:01:14.100Z,13.80
2022-10-22T00:03:42.733Z,13.80
2022-10-22T00:06:11.111Z,13.80
2022-10-22T00:08:40.888Z,13.80
2022-10-22T00:11:13.784Z,13.70
2022-10-22T00:13:42.570Z,13.70
2022-10-22T00:16:11.220Z,13.70
2022-10-22T00:18:41.668Z,13.70
2022-10-22T00:21:11.064Z,13.70
2022-10-22T00:23:43.411Z,13.60
2022-10-22T00:26:12.261Z,13.60
2022-10-22T00:28:40.693Z,13.60
2022-10-22T00:31:09.062Z,13.60
2022-10-22T00:33:37.422Z,13.60
2022-10-22T00:36:06.188Z,13.60
2022-10-22T00:38:34.560Z,13.70
2022-10-22T00:41:04.276Z,13.70
2022-10-22T00:43:32.469Z,13.70
2022-10-22T00:46:05.505Z,13.70
2022-10-22T00:48:36.370Z,13.70
2022-10-22T00:51:07.508Z,13.70
2022-10-22T00:53:41.435Z,13.70
2022-10-22T00:56:14.520Z,13.80
2022-10-22T00:58:48.007Z,13.80
2022-10-22T01:01:22.066Z,13.80
2022-10-22T01:03:51.193Z,13.80
2022-10-22T01:06:26.071Z,13.90
2022-10-22T01:09:05.519Z,13.80
2022-10-22T01:11:48.572Z,13.90
2022-10-22T01:14:26.156Z,13.90
2022-10-22T01:17:01.531Z,14.00
2022-10-22T01:19:44.568Z,13.90
2022-10-22T01:22:21.024Z,13.90
2022-10-22T01:24:59.732Z,14.00
2022-10-22T01:27:34.190Z,14.00
2022-10-22T01:30:05.979Z,14.00
2022-10-22T01:32:37.997Z,14.00
2022-10-22T01:35:11.172Z,14.00
2022-10-22T01:37:50.839Z,14.10
2022-10-22T01:40:20.785Z,14.10
2022-10-22T01:42:57.680Z,14.00
2022-10-22T01:45:28.189Z,14.00
2022-10-22T01:48:07.174Z,14.10
2022-10-22T01:50:56.402Z,14.10
2022-10-22T01:53:31.737Z,14.00
2022-10-22T01:56:14.751Z,14.00
2022-10-22T01:58:49.197Z,14.00
2022-10-22T02:01:27.490Z,14.00
2022-10-22T02:04:05.439Z,14.00
2022-10-22T02:06:35.191Z,13.90
2022-10-22T02:09:05.026Z,13.80
2022-10-22T02:11:33.216Z,13.80
2022-10-22T02:14:04.524Z,13.80
2022-10-22T02:16:37.584Z,13.80
2022-10-22T02:19:12.474Z,13.70
2022-10-22T02:21:41.166Z,13.70
2022-10-22T02:24:09.977Z,13.60
2022-10-22T02:26:44.280Z,13.60
2022-10-22T02:29:19.962Z,13.60
2022-10-22T02:31:54.339Z,13.50
2022-10-22T02:34:28.826Z,13.60
2022-10-22T02:36:57.845Z,13.50
2022-10-22T02:39:27.658Z,13.50
2022-10-22T02:41:58.077Z,13.50
2022-10-22T02:44:26.293Z,13.50
2022-10-22T02:46:55.860Z,13.50
2022-10-22T02:49:24.156Z,13.60
2022-10-22T02:51:52.330Z,13.50
2022-10-22T02:54:20.539Z,13.50
2022-10-22T02:56:48.954Z,13.50
2022-10-22T02:59:17.132Z,13.50
2022-10-22T03:01:45.316Z,13.50
2022-10-22T03:04:14.917Z,13.40
2022-10-22T03:06:44.210Z,13.40
2022-10-22T03:09:12.617Z,13.30
2022-10-22T03:11:40.871Z,13.30
2022-10-22T03:14:09.259Z,13.30
2022-10-22T03:16:37.441Z,13.30
2022-10-22T03:19:05.823Z,13.30
2022-10-22T03:21:42.993Z,13.30
2022-10-22T03:24:15.151Z,13.40
2022-10-22T03:26:44.651Z,13.40
2022-10-22T03:29:14.729Z,13.30
2022-10-22T03:31:43.087Z,13.30
2022-10-22T03:34:12.067Z,13.30
2022-10-22T03:36:42.340Z,13.30
2022-10-22T03:39:13.127Z,13.20
2022-10-22T03:41:41.571Z,13.10
2022-10-22T03:44:09.847Z,13.30
2022-10-22T03:46:38.255Z,13.10
2022-10-22T03:49:06.401Z,13.10
2022-10-22T03:51:35.841Z,13.20
2022-10-22T03:54:05.720Z,13.10
2022-10-22T03:56:34.219Z,13.20
2022-10-22T03:59:02.674Z,13.30
2022-10-22T04:01:32.409Z,13.10
2022-10-22T04:04:00.695Z,13.20
2022-10-22T04:06:31.203Z,13.10
2022-10-22T04:09:01.567Z,13.10
2022-10-22T04:11:31.116Z,13.10
2022-10-22T04:13:59.334Z,13.10
2022-10-22T04:16:31.117Z,13.10
2022-10-22T04:18:59.468Z,13.10
2022-10-22T04:21:27.685Z,13.10
2022-10-22T04:23:55.969Z,13.20
2022-10-22T04:26:24.192Z,13.10
2022-10-22T04:28:54.112Z,13.10
2022-10-22T04:31:24.625Z,13.00
2022-10-22T04:33:56.758Z,13.10
2022-10-22T04:36:25.940Z,13.20
2022-10-22T04:38:56.171Z,12.90
2022-10-22T04:41:26.255Z,13.00
2022-10-22T04:43:57.664Z,13.00
2022-10-22T04:46:27.508Z,13.30
2022-10-22T04:48:55.730Z,13.40
2022-10-22T04:51:26.022Z,13.50
2022-10-22T04:53:54.603Z,13.50
2022-10-22T04:56:25.199Z,13.70
2022-10-22T04:58:58.359Z,13.60
2022-10-22T05:01:29.320Z,13.50
2022-10-22T05:04:00.518Z,13.50
2022-10-22T05:06:29.097Z,13.50
2022-10-22T05:08:59.413Z,13.60
2022-10-22T05:11:29.926Z,13.30
2022-10-22T05:14:00.662Z,13.40
2022-10-22T05:16:30.413Z,13.30
2022-10-22T05:19:00.656Z,13.30
2022-10-22T05:21:29.700Z,13.30
2022-10-22T05:24:00.086Z,13.30
2022-10-22T05:26:29.867Z,13.40
2022-10-22T05:28:59.769Z,13.40
2022-10-22T05:31:28.923Z,13.40
2022-10-22T05:33:57.303Z,13.40
2022-10-22T05:36:25.707Z,13.30
2022-10-22T05:38:54.444Z,13.30
2022-10-22T05:41:24.585Z,13.40
2022-10-22T05:43:52.821Z,13.40
2022-10-22T05:46:24.268Z,13.40
2022-10-22T05:48:53.009Z,13.40
2022-10-22T05:51:21.472Z,13.40
2022-10-22T05:53:54.050Z,13.40
2022-10-22T05:56:23.327Z,13.40
2022-10-22T05:58:51.557Z,13.50
2022-10-22T06:01:23.016Z,13.50
2022-10-22T06:03:54.457Z,13.60
2022-10-22T06:06:27.313Z,13.60
2022-10-22T06:08:56.750Z,13.50
2022-10-22T06:11:25.680Z,13.60
2022-10-22T06:13:54.117Z,13.70
2022-10-22T06:16:23.667Z,13.70
2022-10-22T06:18:51.856Z,13.60
2022-10-22T06:21:20.103Z,13.60
2022-10-22T06:23:48.267Z,13.60
2022-10-22T06:26:17.885Z,13.70
2022-10-22T06:28:46.150Z,13.70
2022-10-22T06:31:15.053Z,13.70
2022-10-22T06:33:44.668Z,13.80
2022-10-22T06:36:14.608Z,13.80
2022-10-22T06:38:43.325Z,13.90
2022-10-22T06:41:13.008Z,13.90
2022-10-22T06:43:42.183Z,13.90
2022-10-22T06:46:14.684Z,13.90
2022-10-22T06:48:50.703Z,14.10
2022-10-22T06:51:19.448Z,14.10
2022-10-22T06:53:48.028Z,14.20
2022-10-22T06:56:18.147Z,14.10
2022-10-22T06:58:48.806Z,14.30
2022-10-22T07:01:19.316Z,14.40
2022-10-22T07:03:51.168Z,14.30
2022-10-22T07:06:20.517Z,14.50
2022-10-22T07:08:49.258Z,14.50
2022-10-22T07:11:19.137Z,14.40
2022-10-22T07:13:48.318Z,14.50
2022-10-22T07:16:17.664Z,14.40
2022-10-22T07:18:48.744Z,14.40
2022-10-22T07:21:19.286Z,14.40
2022-10-22T07:23:48.080Z,14.30
2022-10-22T07:26:18.213Z,14.30
2022-10-22T07:28:46.410Z,14.30
2022-10-22T07:31:16.384Z,14.30
2022-10-22T07:33:45.097Z,14.30
2022-10-22T07:36:17.982Z,14.40
2022-10-22T07:38:46.727Z,14.30
2022-10-22T07:41:15.681Z,14.40
2022-10-22T07:43:44.177Z,14.30
2022-10-22T07:46:12.610Z,14.20
2022-10-22T07:48:40.913Z,14.40
2022-10-22T07:51:09.224Z,14.30
2022-10-22T07:53:39.381Z,14.40
2022-10-22T07:56:08.864Z,14.40
2022-10-22T07:58:37.076Z,14.40
2022-10-22T08:01:06.929Z,14.30
2022-10-22T08:03:35.860Z,14.40
2022-10-22T08:06:04.705Z,14.50
2022-10-22T08:08:33.591Z,14.50
2022-10-22T08:11:03.522Z,14.40
2022-10-22T08:13:32.185Z,14.50
2022-10-22T08:16:01.401Z,14.50
2022-10-22T08:18:30.320Z,14.50
2022-10-22T08:20:58.571Z,14.50
2022-10-22T08:23:28.635Z,14.50
2022-10-22T08:25:58.498Z,14.40
2022-10-22T08:28:29.805Z,14.40
2022-10-22T08:30:58.120Z,14.30
2022-10-22T08:33:26.428Z,14.40
2022-10-22T08:35:55.137Z,14.30
2022-10-22T08:38:23.481Z,14.20
2022-10-22T08:40:56.034Z,14.20
2022-10-22T08:43:49.337Z,14.30
2022-10-22T08:46:40.335Z,14.10
2022-10-22T08:49:15.220Z,13.90
2022-10-22T08:51:43.698Z,13.70
2022-10-22T08:54:36.131Z,13.90
2022-10-22T08:57:18.270Z,13.80
2022-10-22T08:59:52.356Z,13.90
2022-10-22T09:02:34.941Z,13.80
2022-10-22T09:05:12.966Z,13.70
2022-10-22T09:07:44.005Z,13.60
2022-10-22T09:10:13.851Z,14.00
2022-10-22T09:12:42.263Z,14.10
2022-10-22T09:15:15.163Z,14.10
2022-10-22T09:17:59.099Z,14.20
2022-10-22T09:20:35.400Z,14.20
2022-10-22T09:23:25.699Z,14.20
2022-10-22T09:25:55.673Z,14.20
2022-10-22T09:28:23.919Z,14.20
2022-10-22T09:30:54.064Z,14.30
2022-10-22T09:33:26.353Z,14.30
2022-10-22T09:35:57.300Z,14.40
2022-10-22T09:38:28.505Z,14.20
2022-10-22T09:40:58.456Z,14.40
2022-10-22T09:43:26.833Z,14.50
2022-10-22T09:46:00.871Z,14.70
2022-10-22T09:48:35.196Z,14.70
2022-10-22T09:51:12.269Z,14.70
2022-10-22T09:53:44.232Z,14.80
2022-10-22T09:56:22.410Z,14.80
2022-10-22T09:58:52.250Z,14.90
2022-10-22T10:01:27.501Z,15.00
2022-10-22T10:03:55.907Z,15.10
2022-10-22T10:06:25.137Z,15.10
2022-10-22T10:08:53.533Z,15.10
2022-10-22T10:11:30.043Z,15.20
2022-10-22T10:14:09.486Z,15.00
2022-10-22T10:16:48.552Z,15.20
2022-10-22T10:19:38.083Z,15.30
2022-10-22T10:22:21.538Z,15.50
2022-10-22T10:25:03.373Z,15.40
2022-10-22T10:27:38.762Z,15.40
2022-10-22T10:30:14.025Z,15.60
2022-10-22T10:33:11.808Z,15.90
2022-10-22T10:35:53.332Z,15.60
2022-10-22T10:38:40.591Z,15.70
2022-10-22T10:41:21.349Z,16.00
2022-10-22T10:44:04.460Z,16.10
2022-10-22T10:46:41.100Z,16.10
2022-10-22T10:49:17.979Z,16.50
2022-10-22T10:51:52.837Z,16.30
2022-10-22T10:54:32.849Z,16.20
2022-10-22T10:57:05.560Z,16.20
2022-10-22T10:59:46.408Z,16.10
2022-10-22T11:02:45.269Z,16.10
2022-10-22T11:05:33.667Z,15.90
2022-10-22T11:08:04.880Z,15.90
2022-10-22T11:10:37.903Z,16.10
2022-10-22T11:13:14.449Z,16.30
2022-10-22T11:15:47.365Z,16.60
2022-10-22T11:18:23.677Z,16.60
2022-10-22T11:21:04.000Z,16.40
2022-10-22T11:23:38.223Z,16.50
2022-10-22T11:26:14.219Z,16.40
2022-10-22T11:28:46.845Z,16.40
2022-10-22T11:31:17.619Z,16.20
2022-10-22T11:33:57.311Z,16.60
2022-10-22T11:36:36.636Z,16.50
2022-10-22T11:39:08.498Z,16.50
2022-10-22T11:41:38.282Z,16.50
2022-10-22T11:44:23.381Z,16.50
2022-10-22T11:46:59.241Z,16.50
2022-10-22T11:49:29.653Z,16.60
2022-10-22T11:52:28.141Z,16.70
2022-10-22T11:54:58.389Z,16.70
2022-10-22T11:57:38.096Z,16.70
2022-10-22T12:00:11.877Z,16.80
2022-10-22T12:02:43.890Z,16.90
2022-10-22T12:05:37.436Z,16.70
2022-10-22T12:08:24.814Z,16.60
2022-10-22T12:11:07.578Z,16.80
2022-10-22T12:13:58.601Z,17.00
2022-10-22T12:16:44.026Z,17.20
2022-10-22T12:19:20.113Z,17.50
2022-10-22T12:21:53.129Z,17.40
2022-10-22T12:24:24.987Z,17.40
2022-10-22T12:26:53.602Z,17.50
2022-10-22T12:29:25.610Z,17.70
2022-10-22T12:31:55.217Z,17.90
2022-10-22T12:34:25.288Z,17.90
2022-10-22T12:36:55.563Z,18.10
2022-10-22T12:39:27.821Z,18.40
2022-10-22T12:41:56.767Z,18.30
2022-10-22T12:44:25.386Z,18.00
2022-10-22T12:46:56.872Z,18.10
2022-10-22T12:49:30.892Z,18.10
2022-10-22T12:52:02.463Z,18.30
2022-10-22T12:54:34.456Z,18.20
2022-10-22T12:57:03.197Z,17.80
2022-10-22T12:59:36.379Z,18.20
2022-10-22T13:02:13.525Z,17.90
2022-10-22T13:04:41.878Z,17.80
2022-10-22T13:07:22.191Z,17.70
2022-10-22T13:10:00.825Z,17.80
2022-10-22T13:12:36.612Z,17.70
2022-10-22T13:15:20.517Z,17.70
2022-10-22T13:17:49.429Z,17.50
2022-10-22T13:20:21.180Z,17.70
2022-10-22T13:23:00.283Z,17.70
2022-10-22T13:25:31.731Z,17.50
2022-10-22T13:28:02.449Z,17.60
2022-10-22T13:30:33.435Z,17.50
2022-10-22T13:33:03.659Z,17.40
2022-10-22T13:35:33.803Z,17.50
2022-10-22T13:38:02.251Z,17.40
2022-10-22T13:40:31.868Z,17.40
2022-10-22T13:43:00.137Z,17.40
2022-10-22T13:45:28.521Z,17.30
2022-10-22T13:47:57.122Z,17.30
2022-10-22T13:50:25.498Z,17.20
2022-10-22T13:52:56.353Z,17.40
2022-10-22T13:55:27.051Z,17.20
2022-10-22T13:57:57.421Z,17.10
2022-10-22T14:00:26.339Z,17.00
2022-10-22T14:02:58.338Z,17.10
2022-10-22T14:05:26.853Z,17.10
2022-10-22T14:07:55.354Z,17.30
2022-10-22T14:10:26.003Z,17.30
2022-10-22T14:12:54.632Z,17.20
2022-10-22T14:15:26.867Z,17.20
2022-10-22T14:17:59.625Z,17.30
2022-10-22T14:20:31.153Z,17.40
2022-10-22T14:23:03.610Z,17.10
2022-10-22T14:25:32.633Z,17.10
2022-10-22T14:28:00.919Z,16.90
2022-10-22T14:30:30.480Z,16.80
2022-10-22T14:32:59.857Z,16.70
2022-10-22T14:35:28.173Z,16.60
2022-10-22T14:37:58.323Z,16.60
2022-10-22T14:40:26.720Z,16.60
2022-10-22T14:42:55.137Z,16.50
2022-10-22T14:45:25.240Z,16.50
2022-10-22T14:47:56.459Z,16.50
2022-10-22T14:50:25.430Z,16.30
2022-10-22T14:52:53.716Z,16.20
2022-10-22T14:55:22.663Z,16.20
2022-10-22T14:57:50.994Z,16.10
2022-10-22T15:00:20.329Z,16.10
2022-10-22T15:02:49.512Z,16.00
2022-10-22T15:05:19.550Z,16.10
2022-10-22T15:07:47.766Z,15.80
2022-10-22T15:10:16.501Z,15.50
2022-10-22T15:12:44.740Z,15.50
2022-10-22T15:15:13.257Z,15.50
2022-10-22T15:17:41.980Z,15.60
2022-10-22T15:20:10.963Z,15.60
2022-10-22T15:22:41.185Z,15.60
2022-10-22T15:25:10.725Z,15.50
2022-10-22T15:27:39.098Z,15.50
2022-10-22T15:30:08.831Z,15.50
2022-10-22T15:32:37.213Z,15.40
2022-10-22T15:35:06.539Z,15.40
2022-10-22T15:37:34.776Z,15.30
2022-10-22T15:40:05.128Z,15.30
2022-10-22T15:42:33.348Z,15.30
2022-10-22T15:45:02.280Z,15.30
2022-10-22T15:47:31.458Z,15.20
2022-10-22T15:49:59.992Z,15.10
2022-10-22T15:52:28.126Z,15.10
2022-10-22T15:54:56.614Z,15.00
2022-10-22T15:57:26.286Z,15.00
2022-10-22T15:59:54.620Z,15.00
2022-10-22T16:02:22.936Z,14.90
2022-10-22T16:04:51.197Z,14.90
2022-10-22T16:07:21.181Z,14.90
2022-10-22T16:09:56.588Z,14.90
2022-10-22T16:12:26.535Z,14.90
2022-10-22T16:14:54.795Z,14.90
2022-10-22T16:17:23.379Z,14.90
2022-10-22T16:19:51.619Z,14.90
2022-10-22T16:22:19.824Z,14.90
2022-10-22T16:24:48.161Z,14.90
2022-10-22T16:27:16.457Z,14.90
2022-10-22T16:29:46.128Z,15.00
2022-10-22T16:32:16.287Z,14.90
2022-10-22T16:34:44.470Z,14.90
2022-10-22T16:37:12.608Z,15.00
2022-10-22T16:39:40.958Z,15.00
2022-10-22T16:42:09.228Z,14.90
2022-10-22T16:44:37.549Z,14.90
2022-10-22T16:47:07.256Z,14.90
2022-10-22T16:49:35.432Z,14.90
2022-10-22T16:52:03.692Z,14.90
2022-10-22T16:54:32.437Z,14.80
2022-10-22T16:57:00.726Z,14.90
2022-10-22T16:59:28.912Z,14.90
2022-10-22T17:01:57.742Z,14.90
2022-10-22T17:04:27.305Z,14.90
2022-10-22T17:06:55.584Z,14.90
2022-10-22T17:09:24.406Z,14.80
2022-10-22T17:11:52.643Z,14.80
2022-10-22T17:14:22.007Z,14.80
2022-10-22T17:16:53.779Z,14.80
2022-10-22T17:19:22.226Z,14.80
2022-10-22T17:21:53.572Z,14.80
2022-10-22T17:24:22.109Z,14.80
2022-10-22T17:26:50.325Z,14.80
2022-10-22T17:29:18.513Z,14.80
2022-10-22T17:31:47.414Z,14.80
2022-10-22T17:34:18.326Z,14.80
2022-10-22T17:36:46.601Z,14.80
2022-10-22T17:39:19.734Z,14.70
2022-10-22T17:41:47.911Z,14.60
2022-10-22T17:44:17.275Z,14.60
2022-10-22T17:46:46.296Z,14.50
2022-10-22T17:49:18.222Z,14.40
2022-10-22T17:51:46.884Z,14.40
2022-10-22T17:54:16.571Z,14.30
2022-10-22T17:56:44.874Z,14.30
2022-10-22T17:59:15.971Z,14.20
2022-10-22T18:01:45.795Z,14.10
2022-10-22T18:04:16.681Z,14.10
2022-10-22T18:06:46.177Z,14.00
2022-10-22T18:09:19.044Z,14.00
2022-10-22T18:11:47.880Z,14.00
2022-10-22T18:14:17.556Z,14.00
2022-10-22T18:16:45.897Z,14.00
2022-10-22T18:19:16.535Z,13.90
2022-10-22T18:21:44.707Z,13.90
2022-10-22T18:24:14.348Z,13.90
2022-10-22T18:26:44.460Z,13.80
2022-10-22T18:29:16.089Z,13.80
2022-10-22T18:31:44.562Z,13.80
2022-10-22T18:34:13.652Z,13.80
2022-10-22T18:36:43.048Z,13.80
2022-10-22T18:39:14.829Z,13.80
2022-10-22T18:41:44.917Z,13.80
2022-10-22T18:44:14.940Z,13.80
2022-10-22T18:46:43.181Z,13.70
2022-10-22T18:49:19.266Z,13.70
2022-10-22T18:51:48.878Z,13.60
2022-10-22T18:54:24.870Z,13.60
2022-10-22T18:57:00.550Z,13.50
2022-10-22T18:59:31.349Z,13.50
2022-10-22T19:02:00.235Z,13.40
2022-10-22T19:04:33.286Z,13.30
2022-10-22T19:07:01.801Z,13.20
2022-10-22T19:09:30.114Z,13.20
2022-10-22T19:11:59.763Z,13.10
2022-10-22T19:14:28.647Z,13.10
2022-10-22T19:16:56.883Z,13.00
2022-10-22T19:19:25.553Z,13.00
2022-10-22T19:21:54.108Z,13.10
2022-10-22T19:24:22.638Z,13.10
2022-10-22T19:26:51.317Z,13.00
2022-10-22T19:29:22.377Z,13.10
2022-10-22T19:31:51.866Z,12.90
2022-10-22T19:34:20.903Z,12.90
2022-10-22T19:36:51.813Z,12.80
2022-10-22T19:39:20.214Z,12.60
2022-10-22T19:41:48.589Z,12.60
2022-10-22T19:44:16.981Z,12.50
2022-10-22T19:46:46.890Z,12.50
2022-10-22T19:49:18.953Z,12.50
2022-10-22T19:51:50.329Z,12.50
2022-10-22T19:54:20.416Z,12.50
2022-10-22T19:56:50.619Z,12.40
2022-10-22T19:59:20.741Z,12.40
2022-10-22T20:01:50.526Z,12.40
2022-10-22T20:04:19.883Z,12.30
2022-10-22T20:06:48.347Z,12.30
2022-10-22T20:09:16.821Z,12.30
2022-10-22T20:11:45.410Z,12.20
2022-10-22T20:14:14.774Z,12.20
2022-10-22T20:16:44.047Z,12.20
2022-10-22T20:19:16.355Z,12.20
2022-10-22T20:21:46.373Z,12.20
2022-10-22T20:24:14.829Z,12.10
2022-10-22T20:26:43.129Z,12.10
2022-10-22T20:29:14.189Z,12.00
2022-10-22T20:31:42.568Z,12.00
2022-10-22T20:34:10.969Z,12.00
2022-10-22T20:36:41.101Z,11.90
2022-10-22T20:39:13.489Z,11.90
2022-10-22T20:41:41.998Z,11.90
2022-10-22T20:44:14.632Z,11.90
2022-10-22T20:46:43.069Z,11.90
2022-10-22T20:49:14.834Z,11.90
2022-10-22T20:51:44.992Z,11.90
2022-10-22T20:54:14.903Z,11.80
2022-10-22T20:56:43.646Z,11.80
2022-10-22T20:59:12.950Z,11.80
2022-10-22T21:01:43.785Z,11.80
2022-10-22T21:04:12.509Z,11.80
2022-10-22T21:06:43.043Z,11.70
2022-10-22T21:09:14.426Z,11.70
2022-10-22T21:11:44.154Z,11.70
2022-10-22T21:14:14.669Z,11.60
2022-10-22T21:16:44.065Z,11.70
2022-10-22T21:19:12.824Z,11.80
2022-10-22T21:21:41.783Z,11.70
2022-10-22T21:24:10.375Z,11.70
2022-10-22T21:26:41.086Z,11.70
2022-10-22T21:29:09.409Z,11.70
2022-10-22T21:31:38.119Z,11.70
2022-10-22T21:34:06.466Z,11.70
2022-10-22T21:36:34.668Z,11.70
2022-10-22T21:39:03.517Z,11.60
2022-10-22T21:41:31.906Z,11.60
2022-10-22T21:44:01.736Z,11.60
2022-10-22T21:46:30.733Z,11.60
2022-10-22T21:49:01.461Z,11.50
2022-10-22T21:51:32.042Z,11.50
2022-10-22T21:54:00.547Z,11.50
2022-10-22T21:56:32.640Z,11.50
2022-10-22T21:59:03.139Z,11.50
2022-10-22T22:01:31.580Z,11.50
2022-10-22T22:04:00.506Z,11.50
2022-10-22T22:06:33.058Z,11.40
2022-10-22T22:09:02.953Z,11.40
2022-10-22T22:11:31.795Z,11.30
2022-10-22T22:14:01.652Z,11.30
2022-10-22T22:16:32.422Z,11.40
2022-10-22T22:21:30.724Z,11.30
2022-10-22T22:23:59.613Z,11.40
2022-10-22T22:26:30.163Z,11.40
2022-10-22T22:29:00.358Z,11.40
2022-10-22T22:31:31.490Z,11.40
2022-10-22T22:34:00.730Z,11.40
2022-10-22T22:36:29.415Z,11.40
2022-10-22T22:38:58.119Z,11.40
2022-10-22T22:41:26.406Z,11.40
2022-10-22T22:46:23.606Z,11.40
2022-10-22T22:48:53.302Z,11.40
2022-10-22T22:51:21.629Z,11.40
2022-10-22T22:53:49.959Z,11.30
2022-10-22T22:56:20.419Z,11.30
2022-10-22T22:58:49.409Z,11.30
2022-10-22T23:01:19.670Z,11.30
2022-10-22T23:03:50.133Z,11.40
2022-10-22T23:06:19.863Z,11.40
2022-10-22T23:08:52.036Z,11.30
2022-10-22T23:11:21.350Z,11.20
2022-10-22T23:13:52.979Z,11.10
2022-10-22T23:16:23.161Z,11.10
2022-10-22T23:18:51.937Z,11.10
2022-10-22T23:21:24.011Z,11.10
2022-10-22T23:23:55.040Z,11.00
2022-10-22T23:26:25.664Z,11.00
2022-10-22T23:28:53.894Z,11.00
2022-10-22T23:31:22.800Z,10.90
2022-10-22T23:33:51.090Z,10.90
2022-10-22T23:36:19.293Z,10.90
2022-10-22T23:38:49.808Z,10.80
2022-10-22T23:41:18.449Z,10.80
2022-10-22T23:43:46.728Z,10.80
2022-10-22T23:46:15.584Z,10.80
2022-10-22T23:48:43.936Z,10.70
2022-10-22T23:51:14.211Z,10.70
2022-10-22T23:53:44.067Z,10.70
2022-10-22T23:56:16.562Z,10.70
2022-10-22T23:58:45.435Z,10.70
